Time;durP1;ratioP1;P1;durP2;ratioP2;P2;SDS_P1;SDS_P2;PMS_P1;PMS_P2;Temp;Humidity;BMP_temperature;BMP_pressure;BME280_temperature;BME280_humidity;BME280_pressure;Samples;Min_cycle;Max_cycle;Signal;HPM_P1;HPM_P2
2021/05/23 00:00:34;;;;;;;0.70;0.68;;;26.10;56.10;;;;;;5105361;28;20039;-39
2021/05/23 00:03:04;;;;;;;1.38;1.00;;;26.00;56.00;;;;;;5091738;28;20039;-40
2021/05/23 00:05:31;;;;;;;0.93;0.82;;;26.00;56.00;;;;;;5084853;28;20613;-40
2021/05/23 00:08:08;;;;;;;0.77;0.77;;;26.00;56.00;;;;;;5083506;28;20124;-43
2021/05/23 00:10:52;;;;;;;1.03;0.90;;;26.00;56.00;;;;;;5095063;28;20024;-39
2021/05/23 00:13:21;;;;;;;0.90;0.90;;;26.00;56.00;;;;;;5105089;28;20039;-40
2021/05/23 00:15:56;;;;;;;0.93;0.82;;;26.00;56.10;;;;;;5103458;28;20035;-41
2021/05/23 00:18:22;;;;;;;0.80;0.80;;;25.90;56.10;;;;;;5103069;28;20024;-40
2021/05/23 00:20:49;;;;;;;0.90;0.80;;;25.90;56.10;;;;;;5104878;28;20028;-41
2021/05/23 00:23:15;;;;;;;0.90;0.80;;;25.90;55.90;;;;;;5102863;28;20051;-40
2021/05/23 00:25:41;;;;;;;0.70;0.70;;;25.90;56.00;;;;;;5104471;28;20273;-39
2021/05/23 00:28:08;;;;;;;1.80;1.03;;;25.90;56.10;;;;;;5104857;28;20523;-40
2021/05/23 00:30:35;;;;;;;0.77;0.77;;;25.90;56.00;;;;;;5103498;28;20253;-40
2021/05/23 00:33:02;;;;;;;0.70;0.70;;;25.90;56.10;;;;;;5104913;28;20350;-39
2021/05/23 00:35:29;;;;;;;1.15;1.05;;;25.90;56.10;;;;;;5104726;28;20092;-40
2021/05/23 00:37:56;;;;;;;1.33;1.08;;;25.90;56.20;;;;;;5104518;28;20128;-40
2021/05/23 00:40:22;;;;;;;1.48;0.90;;;25.80;56.10;;;;;;5104488;28;20057;-40
2021/05/23 00:42:48;;;;;;;1.00;0.82;;;25.80;56.10;;;;;;5104592;28;20062;-39
2021/05/23 00:45:16;;;;;;;1.15;0.90;;;25.80;56.10;;;;;;5103256;28;20032;-40
2021/05/23 00:47:43;;;;;;;1.10;0.98;;;25.80;56.10;;;;;;5104538;28;20123;-40
2021/05/23 00:50:10;;;;;;;0.90;0.70;;;25.80;56.00;;;;;;5104169;28;20048;-39
2021/05/23 00:52:37;;;;;;;;;;;25.80;56.00;;;;;;5103565;28;20051;-40
2021/05/23 00:55:04;;;;;;;0.82;0.82;;;25.80;56.10;;;;;;5102768;28;19912;-40
2021/05/23 00:57:30;;;;;;;0.80;0.80;;;25.80;56.00;;;;;;5103962;28;20032;-42
2021/05/23 00:59:57;;;;;;;1.00;0.90;;;25.80;56.10;;;;;;5104311;28;20534;-39
2021/05/23 01:02:40;;;;;;;1.08;0.95;;;25.80;56.10;;;;;;5102184;28;20229;-39
2021/05/23 01:05:06;;;;;;;2.03;0.93;;;25.70;56.10;;;;;;5102798;28;20039;-42
2021/05/23 01:07:33;;;;;;;1.73;0.90;;;25.70;56.20;;;;;;5103810;28;20035;-41
2021/05/23 01:10:21;;;;;;;0.80;0.80;;;25.70;56.30;;;;;;5104087;28;20089;-40
2021/05/23 01:12:49;;;;;;;;;;;25.70;56.30;;;;;;5100466;28;20035;-42
2021/05/23 01:15:15;;;;;;;0.93;0.90;;;25.60;56.30;;;;;;5065413;28;19908;-39
2021/05/23 01:17:45;;;;;;;1.17;1.07;;;25.60;56.30;;;;;;5082178;28;20024;-42
2021/05/23 01:20:53;;;;;;;1.00;0.90;;;25.60;56.30;;;;;;5083738;28;20028;-40
2021/05/23 01:23:19;;;;;;;0.85;0.85;;;25.60;56.40;;;;;;5060822;28;20045;-41
2021/05/23 01:25:46;;;;;;;1.17;0.90;;;25.60;56.40;;;;;;5060629;28;20171;-40
2021/05/23 01:28:14;;;;;;;0.70;0.70;;;25.60;56.50;;;;;;5060330;28;20188;-39
2021/05/23 01:30:43;;;;;;;0.98;0.90;;;25.60;56.50;;;;;;5043582;28;20029;-43
2021/05/23 01:33:11;;;;;;;1.38;1.00;;;25.60;56.50;;;;;;5058809;28;20074;-39
2021/05/23 01:35:39;;;;;;;0.90;0.80;;;25.50;56.40;;;;;;5080380;28;20025;-41
2021/05/23 01:38:10;;;;;;;0.95;0.85;;;25.50;56.40;;;;;;5080478;28;20151;-43
2021/05/23 01:40:37;;;;;;;1.10;0.90;;;25.50;56.40;;;;;;5080311;28;20560;-40
2021/05/23 01:43:04;;;;;;;1.00;0.95;;;25.50;56.50;;;;;;5080271;28;20117;-41
2021/05/23 01:45:30;;;;;;;1.17;0.95;;;25.50;56.50;;;;;;5063751;28;20025;-40
2021/05/23 01:47:57;;;;;;;1.15;1.05;;;25.50;56.50;;;;;;5063572;28;20048;-40
2021/05/23 01:50:23;;;;;;;0.85;0.85;;;25.40;56.50;;;;;;5046736;28;20053;-39
2021/05/23 01:52:52;;;;;;;1.13;1.02;;;25.40;56.50;;;;;;5080219;28;20044;-39
2021/05/23 01:55:18;;;;;;;1.42;1.00;;;25.40;56.50;;;;;;5063713;28;20033;-39
2021/05/23 01:57:44;;;;;;;1.13;1.03;;;25.40;56.60;;;;;;5078980;28;20580;-40
2021/05/23 02:00:11;;;;;;;1.20;1.10;;;25.40;56.80;;;;;;5086517;28;20031;-39
2021/05/23 02:02:37;;;;;;;1.10;1.00;;;25.40;56.80;;;;;;5103171;28;20039;-39
2021/05/23 02:05:04;;;;;;;1.30;1.17;;;25.40;56.80;;;;;;5101918;28;20055;-40
2021/05/23 02:07:30;;;;;;;1.20;1.10;;;25.30;56.70;;;;;;5101843;28;20148;-40
2021/05/23 02:09:57;;;;;;;1.35;0.90;;;25.30;56.70;;;;;;5101679;28;20028;-41
2021/05/23 02:12:23;;;;;;;1.55;0.85;;;25.30;56.70;;;;;;5103083;28;20103;-40
2021/05/23 02:14:50;;;;;;;0.90;0.80;;;25.30;56.70;;;;;;5101800;28;20031;-40
2021/05/23 02:17:16;;;;;;;1.40;1.20;;;25.30;56.80;;;;;;5101698;28;20028;-40
2021/05/23 02:19:51;;;;;;;1.05;0.95;;;25.20;56.80;;;;;;5102778;28;20024;-40
2021/05/23 02:22:17;;;;;;;1.10;1.00;;;25.20;56.80;;;;;;5102910;28;20032;-40
2021/05/23 02:24:44;;;;;;;0.93;0.87;;;25.20;56.80;;;;;;5102640;28;20059;-39
2021/05/23 02:27:11;;;;;;;1.00;0.90;;;25.20;56.80;;;;;;5102841;28;20582;-40
2021/05/23 02:29:37;;;;;;;1.70;1.00;;;25.20;56.70;;;;;;5102639;28;20036;-40
2021/05/23 02:32:07;;;;;;;1.00;0.90;;;25.20;56.80;;;;;;5097315;28;20041;-40
2021/05/23 02:34:34;;;;;;;1.30;1.20;;;25.20;56.90;;;;;;5081119;28;20062;-42
2021/05/23 02:37:00;;;;;;;1.20;1.10;;;25.10;56.80;;;;;;5082581;28;20622;-40
2021/05/23 02:39:27;;;;;;;1.35;1.10;;;25.10;56.70;;;;;;5084612;28;20032;-40
2021/05/23 02:41:53;;;;;;;1.17;1.08;;;25.10;56.70;;;;;;5104447;28;20042;-41
2021/05/23 02:44:19;;;;;;;1.40;1.30;;;25.10;56.80;;;;;;5106999;28;20028;-39
2021/05/23 02:46:45;;;;;;;1.47;1.20;;;25.10;56.70;;;;;;5105620;28;20044;-39
2021/05/23 02:49:14;;;;;;;1.55;1.27;;;25.00;56.70;;;;;;5106335;28;20024;-43
2021/05/23 02:51:41;;;;;;;1.98;1.30;;;25.00;56.80;;;;;;5088503;28;20048;-42
2021/05/23 02:54:08;;;;;;;1.40;1.30;;;25.00;56.60;;;;;;5106765;28;20500;-40
2021/05/23 02:56:34;;;;;;;1.55;1.45;;;25.00;56.90;;;;;;5106379;28;20308;-40
2021/05/23 02:59:01;;;;;;;1.50;1.40;;;25.00;56.90;;;;;;5105035;28;20034;-41
2021/05/23 03:01:27;;;;;;;1.60;1.50;;;25.00;57.00;;;;;;5105817;28;20032;-41
2021/05/23 03:03:54;;;;;;;1.50;1.40;;;24.90;57.10;;;;;;5086022;28;20028;-41
2021/05/23 03:06:20;;;;;;;1.90;1.38;;;24.90;57.30;;;;;;5086082;28;20036;-40
2021/05/23 03:08:46;;;;;;;1.47;1.37;;;24.90;57.30;;;;;;5104580;28;20146;-39
2021/05/23 03:11:12;;;;;;;1.85;1.73;;;24.90;57.30;;;;;;5094549;28;20249;-39
2021/05/23 03:13:38;;;;;;;1.67;1.50;;;24.80;57.20;;;;;;5104898;28;20080;-40
2021/05/23 03:16:05;;;;;;;1.30;1.20;;;24.80;57.20;;;;;;5106225;28;20024;-40
2021/05/23 03:18:31;;;;;;;1.37;1.23;;;24.80;57.00;;;;;;5106089;28;20758;-39
2021/05/23 03:20:57;;;;;;;2.13;1.52;;;24.80;56.90;;;;;;5106006;28;20091;-39
2021/05/23 03:23:23;;;;;;;1.50;1.40;;;24.80;56.70;;;;;;5104906;28;20047;-40
2021/05/23 03:25:50;;;;;;;1.17;1.08;;;24.80;56.80;;;;;;5105909;28;20020;-40
2021/05/23 03:28:16;;;;;;;3.33;1.50;;;24.80;56.60;;;;;;5105734;28;20024;-39
2021/05/23 03:30:42;;;;;;;1.43;1.33;;;24.80;56.60;;;;;;5106013;28;20032;-40
2021/05/23 03:33:09;;;;;;;1.17;1.00;;;24.70;56.50;;;;;;5091261;28;20029;-39
2021/05/23 03:35:35;;;;;;;1.30;1.20;;;24.70;56.40;;;;;;5085258;28;20020;-39
2021/05/23 03:38:02;;;;;;;1.50;1.40;;;24.70;56.40;;;;;;5085176;28;20074;-41
2021/05/23 03:40:31;;;;;;;1.40;1.30;;;24.70;56.30;;;;;;5094894;28;20035;-39
2021/05/23 03:42:57;;;;;;;1.30;1.20;;;24.60;56.40;;;;;;5105401;28;20055;-39
2021/05/23 03:45:23;;;;;;;1.48;1.38;;;24.60;56.30;;;;;;5104170;28;20056;-39
2021/05/23 03:47:50;;;;;;;1.40;1.30;;;24.60;56.30;;;;;;5103879;28;20031;-39
2021/05/23 03:50:19;;;;;;;1.27;1.17;;;24.60;56.50;;;;;;5105467;28;20094;-39
2021/05/23 03:52:46;;;;;;;1.40;1.30;;;24.60;56.40;;;;;;5104272;28;20091;-42
2021/05/23 03:55:13;;;;;;;1.38;1.20;;;24.60;56.50;;;;;;5105361;28;20039;-39
2021/05/23 03:57:39;;;;;;;1.35;1.25;;;24.60;56.70;;;;;;5105090;28;20031;-40
2021/05/23 04:00:06;;;;;;;1.38;1.27;;;24.50;56.70;;;;;;5096896;28;20012;-39
2021/05/23 04:02:32;;;;;;;1.92;1.33;;;24.50;56.70;;;;;;5076732;28;20123;-40
2021/05/23 04:04:59;;;;;;;1.45;1.35;;;24.50;56.80;;;;;;5105137;28;20023;-40
2021/05/23 04:07:26;;;;;;;1.73;1.05;;;24.50;56.90;;;;;;5104937;28;20016;-40
2021/05/23 04:09:53;;;;;;;1.38;1.25;;;24.40;56.80;;;;;;5105157;28;20038;-40
2021/05/23 04:12:32;;;;;;;1.50;1.40;;;24.40;56.80;;;;;;5104883;28;20481;-40
2021/05/23 04:14:58;;;;;;;1.20;1.02;;;24.40;56.60;;;;;;5105007;28;20128;-40
2021/05/23 04:17:27;;;;;;;1.08;1.02;;;24.40;56.50;;;;;;5104720;28;20043;-40
2021/05/23 04:19:53;;;;;;;2.00;1.50;;;24.40;56.50;;;;;;5103617;28;20031;-42
2021/05/23 04:22:19;;;;;;;1.52;1.42;;;24.30;56.40;;;;;;5103582;28;20056;-39
2021/05/23 04:24:45;;;;;;;1.63;1.35;;;24.30;56.50;;;;;;5104201;28;20016;-40
2021/05/23 04:27:11;;;;;;;1.65;1.42;;;24.30;56.50;;;;;;5104610;28;20028;-42
2021/05/23 04:29:37;;;;;;;1.50;1.40;;;24.30;56.50;;;;;;5104317;28;20472;-40
2021/05/23 04:32:05;;;;;;;1.95;1.55;;;24.30;56.50;;;;;;5098948;28;20055;-40
2021/05/23 04:34:31;;;;;;;;;;;24.30;56.50;;;;;;5084674;28;20101;-40
2021/05/23 04:36:57;;;;;;;1.40;1.20;;;24.30;56.50;;;;;;5084257;28;20353;-40
2021/05/23 04:39:23;;;;;;;1.33;1.23;;;24.20;56.50;;;;;;5086015;28;20090;-39
2021/05/23 04:41:49;;;;;;;1.53;1.40;;;24.20;56.60;;;;;;5104185;28;20028;-40
2021/05/23 04:44:16;;;;;;;1.17;1.08;;;24.20;56.60;;;;;;5104414;28;20024;-40
2021/05/23 04:46:42;;;;;;;2.33;1.67;;;24.20;56.60;;;;;;5104479;28;20051;-40
2021/05/23 04:49:08;;;;;;;1.50;1.40;;;24.10;56.70;;;;;;5104147;28;20027;-39
2021/05/23 04:51:34;;;;;;;1.42;1.33;;;24.10;56.70;;;;;;5104074;28;20052;-39
2021/05/23 04:54:00;;;;;;;1.33;1.23;;;24.10;56.70;;;;;;5104222;28;20050;-39
2021/05/23 04:56:26;;;;;;;2.30;1.30;;;24.10;56.80;;;;;;5103823;28;20031;-41
2021/05/23 04:58:52;;;;;;;1.50;1.30;;;24.10;56.80;;;;;;5103855;28;20115;-40
2021/05/23 05:01:19;;;;;;;2.20;1.77;;;24.10;56.70;;;;;;5103923;28;20039;-40
2021/05/23 05:03:45;;;;;;;1.40;1.30;;;24.10;57.30;;;;;;5083784;28;20052;-41
2021/05/23 05:06:11;;;;;;;1.48;1.38;;;24.00;56.80;;;;;;5083628;28;20048;-42
2021/05/23 05:08:37;;;;;;;1.63;1.52;;;24.00;56.70;;;;;;5093065;28;20732;-39
2021/05/23 05:11:03;;;;;;;1.92;1.50;;;24.00;56.80;;;;;;5092240;28;20032;-39
2021/05/23 05:13:29;;;;;;;1.80;1.60;;;24.00;56.80;;;;;;5103782;28;20016;-40
2021/05/23 05:15:56;;;;;;;1.52;1.25;;;24.00;56.90;;;;;;5103910;28;20410;-39
2021/05/23 05:18:22;;;;;;;2.30;1.70;;;23.90;56.80;;;;;;5103597;28;20020;-40
2021/05/23 05:20:48;;;;;;;1.63;1.50;;;23.90;56.90;;;;;;5103691;28;20028;-39
2021/05/23 05:23:14;;;;;;;2.83;1.55;;;23.90;56.90;;;;;;5098932;28;20025;-39
2021/05/23 05:25:40;;;;;;;1.70;1.38;;;23.90;56.90;;;;;;5083303;28;20084;-40
2021/05/23 05:28:06;;;;;;;1.58;1.48;;;23.90;56.90;;;;;;5083098;28;20029;-39
2021/05/23 05:30:33;;;;;;;1.38;1.27;;;23.90;56.90;;;;;;5096363;28;20020;-40
2021/05/23 05:32:59;;;;;;;1.50;1.40;;;23.90;56.90;;;;;;5103499;28;20079;-39
2021/05/23 05:35:25;;;;;;;2.17;1.48;;;23.80;56.90;;;;;;5103282;28;20032;-41
2021/05/23 05:37:51;;;;;;;1.50;1.40;;;23.80;57.00;;;;;;5103458;28;20024;-41
2021/05/23 05:40:17;;;;;;;1.77;1.58;;;23.80;57.00;;;;;;5102974;28;20032;-39
2021/05/23 05:42:44;;;;;;;1.77;1.50;;;23.80;57.10;;;;;;5101613;28;20100;-41
2021/05/23 05:45:11;;;;;;;1.88;1.60;;;23.70;57.00;;;;;;5103421;28;20035;-41
2021/05/23 05:47:37;;;;;;;1.77;1.50;;;23.70;57.10;;;;;;5103368;28;20028;-39
2021/05/23 05:50:03;;;;;;;1.65;1.55;;;23.70;57.10;;;;;;5102823;28;20055;-40
2021/05/23 05:52:30;;;;;;;1.80;1.70;;;23.70;57.10;;;;;;5103083;28;20032;-39
2021/05/23 05:54:56;;;;;;;1.63;1.52;;;23.70;57.10;;;;;;5102968;28;20031;-39
2021/05/23 05:57:22;;;;;;;2.05;1.85;;;23.70;57.10;;;;;;5098568;28;20024;-39
2021/05/23 05:59:48;;;;;;;2.03;1.70;;;23.60;57.10;;;;;;5102685;28;20028;-40
2021/05/23 06:02:15;;;;;;;1.60;1.48;;;23.60;57.10;;;;;;5095714;28;20092;-43
2021/05/23 06:04:41;;;;;;;2.80;1.92;;;23.60;57.10;;;;;;5082663;28;20036;-39
2021/05/23 06:07:07;;;;;;;1.80;1.70;;;23.60;57.10;;;;;;5082716;28;20024;-40
2021/05/23 06:09:33;;;;;;;1.92;1.77;;;23.60;57.20;;;;;;5085597;28;20032;-41
2021/05/23 06:12:00;;;;;;;2.08;1.83;;;23.60;57.30;;;;;;5101904;28;20027;-39
2021/05/23 06:14:26;;;;;;;2.05;1.92;;;23.50;57.20;;;;;;5102778;28;20024;-41
2021/05/23 06:16:52;;;;;;;1.85;1.70;;;23.50;57.30;;;;;;5102124;28;20042;-39
2021/05/23 06:19:18;;;;;;;1.85;1.70;;;23.50;57.30;;;;;;5102745;28;20050;-39
2021/05/23 06:21:44;;;;;;;2.50;1.50;;;23.50;57.30;;;;;;5102287;28;20114;-39
2021/05/23 06:24:11;;;;;;;1.90;1.70;;;23.50;57.30;;;;;;5101332;28;20035;-39
2021/05/23 06:26:37;;;;;;;4.20;1.83;;;23.50;57.30;;;;;;5102410;28;20028;-42
2021/05/23 06:29:03;;;;;;;1.60;1.50;;;23.40;57.30;;;;;;5102180;28;20206;-39
2021/05/23 06:31:29;;;;;;;1.70;1.60;;;23.40;57.40;;;;;;5101402;28;20081;-40
2021/05/23 06:33:59;;;;;;;1.75;1.65;;;23.40;57.40;;;;;;5102619;28;20038;-39
2021/05/23 06:36:25;;;;;;;2.38;1.67;;;23.40;57.40;;;;;;5102689;28;20107;-39
2021/05/23 06:38:51;;;;;;;2.05;1.85;;;23.40;57.40;;;;;;5102759;28;20761;-40
2021/05/23 06:41:17;;;;;;;1.85;1.73;;;23.30;57.40;;;;;;5102039;28;20028;-39
2021/05/23 06:43:43;;;;;;;2.05;1.85;;;23.30;57.40;;;;;;5102411;28;20411;-39
2021/05/23 06:46:10;;;;;;;2.42;1.98;;;23.30;57.50;;;;;;5102523;28;20053;-43
2021/05/23 06:48:36;;;;;;;2.65;1.95;;;23.30;57.50;;;;;;5102438;28;20024;-39
2021/05/23 06:51:02;;;;;;;2.08;1.88;;;23.30;57.50;;;;;;5101958;28;20047;-40
2021/05/23 06:53:28;;;;;;;2.08;1.75;;;23.30;57.50;;;;;;5098268;28;20028;-39
2021/05/23 06:55:54;;;;;;;2.20;2.00;;;23.20;57.60;;;;;;5094640;28;20024;-40
2021/05/23 06:58:21;;;;;;;2.50;1.92;;;23.20;57.50;;;;;;5091504;28;20020;-41
2021/05/23 07:00:47;;;;;;;2.10;1.92;;;23.20;57.60;;;;;;5093870;28;20035;-39
2021/05/23 07:03:13;;;;;;;2.30;2.08;;;23.20;57.60;;;;;;5089827;28;20038;-40
2021/05/23 07:05:39;;;;;;;3.35;2.10;;;23.20;57.60;;;;;;5092024;28;20016;-39
2021/05/23 07:08:06;;;;;;;1.70;1.60;;;23.20;57.60;;;;;;5092520;28;20724;-39
2021/05/23 07:10:32;;;;;;;2.00;1.90;;;23.20;57.70;;;;;;5092658;28;20063;-40
2021/05/23 07:12:58;;;;;;;2.00;1.80;;;23.10;57.70;;;;;;5093997;28;20268;-39
2021/05/23 07:15:24;;;;;;;2.40;2.20;;;23.10;57.70;;;;;;5093583;28;20040;-39
2021/05/23 07:17:53;;;;;;;2.20;2.00;;;23.10;57.70;;;;;;5091019;28;20019;-39
2021/05/23 07:20:19;;;;;;;2.78;2.05;;;23.10;57.70;;;;;;5094773;28;20039;-39
2021/05/23 07:22:45;;;;;;;2.30;2.10;;;23.10;57.70;;;;;;5096861;28;20045;-41
2021/05/23 07:25:12;;;;;;;2.90;2.13;;;23.10;57.70;;;;;;5101962;28;20055;-39
2021/05/23 07:27:38;;;;;;;4.45;1.92;;;23.10;57.80;;;;;;5102985;28;20059;-39
2021/05/23 07:30:05;;;;;;;2.38;2.17;;;23.10;57.80;;;;;;5105558;28;20035;-40
2021/05/23 07:32:31;;;;;;;2.72;2.17;;;23.00;57.80;;;;;;5120421;28;20031;-40
2021/05/23 07:34:57;;;;;;;2.00;1.80;;;23.00;57.80;;;;;;5103125;28;20804;-40
2021/05/23 07:37:24;;;;;;;2.40;2.17;;;23.00;57.90;;;;;;5105738;28;20126;-40
2021/05/23 07:39:50;;;;;;;2.55;2.00;;;23.00;57.90;;;;;;5099901;28;20021;-39
2021/05/23 07:42:16;;;;;;;2.40;2.15;;;23.00;57.90;;;;;;5097263;28;20035;-39
2021/05/23 07:44:42;;;;;;;2.35;2.15;;;22.90;57.90;;;;;;5105505;28;20024;-40
2021/05/23 07:47:08;;;;;;;2.00;1.80;;;22.90;57.90;;;;;;5105501;28;20028;-39
2021/05/23 07:49:40;;;;;;;2.45;1.98;;;22.90;58.00;;;;;;5105254;28;20096;-40
2021/05/23 07:52:11;;;;;;;2.20;2.00;;;22.90;58.00;;;;;;5105071;28;20059;-43
2021/05/23 07:54:40;;;;;;;2.17;1.98;;;22.90;58.00;;;;;;5105080;28;20050;-40
2021/05/23 07:57:07;;;;;;;2.10;1.90;;;22.80;57.90;;;;;;5105025;28;20051;-40
2021/05/23 07:59:33;;;;;;;1.90;1.80;;;22.90;58.10;;;;;;5105205;28;20115;-39
2021/05/23 08:02:00;;;;;;;2.38;2.00;;;22.80;58.10;;;;;;5101063;28;20036;-42
2021/05/23 08:04:26;;;;;;;2.38;1.83;;;22.80;58.10;;;;;;5105109;28;20024;-40
2021/05/23 08:06:52;;;;;;;1.85;1.75;;;22.80;58.10;;;;;;5105057;28;20031;-40
2021/05/23 08:09:19;;;;;;;2.25;1.92;;;22.80;58.10;;;;;;5103871;28;20751;-40
2021/05/23 08:11:46;;;;;;;2.13;1.95;;;22.80;58.20;;;;;;5084263;28;20037;-39
2021/05/23 08:14:13;;;;;;;2.40;1.95;;;22.70;58.10;;;;;;5084760;28;20130;-39
2021/05/23 08:16:39;;;;;;;2.20;2.00;;;22.80;58.20;;;;;;5084660;28;20649;-39
2021/05/23 08:19:05;;;;;;;2.20;2.00;;;22.70;58.20;;;;;;5084640;28;20025;-39
2021/05/23 08:21:32;;;;;;;2.45;2.15;;;22.70;58.20;;;;;;5084215;28;20025;-40
2021/05/23 08:23:58;;;;;;;2.38;1.77;;;22.70;58.20;;;;;;5091791;28;20637;-40
2021/05/23 08:26:24;;;;;;;3.58;2.40;;;22.70;58.20;;;;;;5096115;28;20035;-39
2021/05/23 08:28:51;;;;;;;2.50;2.30;;;22.60;58.20;;;;;;5094838;28;20052;-41
2021/05/23 08:31:17;;;;;;;2.47;2.03;;;22.60;58.30;;;;;;5096404;28;20092;-39
2021/05/23 08:33:43;;;;;;;2.30;2.13;;;22.60;58.20;;;;;;5092913;28;20032;-39
2021/05/23 08:36:09;;;;;;;2.03;1.83;;;22.60;58.30;;;;;;5093228;28;20670;-39
2021/05/23 08:38:36;;;;;;;2.35;2.00;;;22.60;58.30;;;;;;5096464;28;20761;-40
2021/05/23 08:41:03;;;;;;;2.40;2.20;;;22.60;58.30;;;;;;5092512;28;20028;-39
2021/05/23 08:43:29;;;;;;;2.77;2.43;;;22.60;58.30;;;;;;5092962;28;20597;-42
2021/05/23 08:45:56;;;;;;;2.40;2.20;;;22.50;58.30;;;;;;5093215;28;20024;-40
2021/05/23 08:48:22;;;;;;;2.23;2.03;;;22.50;58.40;;;;;;5092957;28;20037;-39
2021/05/23 08:50:48;;;;;;;2.78;2.05;;;22.50;58.40;;;;;;5095041;28;20057;-39
2021/05/23 08:53:15;;;;;;;2.50;2.30;;;22.50;58.40;;;;;;5098988;28;20024;-41
2021/05/23 08:55:42;;;;;;;2.47;1.92;;;22.50;58.40;;;;;;5101923;28;20101;-42
2021/05/23 08:58:08;;;;;;;2.33;2.13;;;22.50;58.50;;;;;;5104006;28;20031;-39
2021/05/23 09:00:34;;;;;;;2.55;1.95;;;22.40;58.40;;;;;;5103954;28;20028;-40
2021/05/23 09:03:10;;;;;;;2.30;2.05;;;22.40;58.50;;;;;;5090012;28;20040;-40
2021/05/23 09:05:43;;;;;;;2.53;2.30;;;22.40;58.50;;;;;;5083656;28;20025;-39
2021/05/23 09:08:18;;;;;;;3.67;2.50;;;22.40;58.50;;;;;;5083825;28;20788;-40
2021/05/23 09:10:45;;;;;;;2.72;2.10;;;22.40;58.50;;;;;;5095069;28;20091;-39
2021/05/23 09:13:11;;;;;;;2.30;2.03;;;22.40;58.60;;;;;;5103523;28;20039;-39
2021/05/23 09:15:38;;;;;;;2.58;2.38;;;22.40;58.60;;;;;;5103899;28;20039;-39
2021/05/23 09:18:08;;;;;;;2.45;2.20;;;22.30;58.60;;;;;;5103811;28;20024;-39
2021/05/23 09:20:36;;;;;;;2.25;2.03;;;22.30;58.60;;;;;;5097313;28;20549;-39
2021/05/23 09:23:07;;;;;;;2.28;2.08;;;22.30;58.70;;;;;;5089851;28;20091;-39
2021/05/23 09:25:35;;;;;;;2.40;2.20;;;22.30;58.70;;;;;;5102382;28;20103;-40
2021/05/23 09:28:01;;;;;;;;;;;22.30;58.70;;;;;;5102554;28;20036;-39
2021/05/23 09:30:30;;;;;;;2.65;2.45;;;22.30;58.80;;;;;;5102275;28;20395;-41
2021/05/23 09:32:58;;;;;;;2.22;2.03;;;22.20;58.70;;;;;;5090320;28;20063;-40
2021/05/23 09:35:25;;;;;;;2.20;2.08;;;22.20;58.80;;;;;;5083365;28;20669;-39
2021/05/23 09:37:59;;;;;;;2.17;1.98;;;22.20;58.90;;;;;;5086010;28;20031;-40
2021/05/23 09:40:27;;;;;;;2.70;2.40;;;22.20;58.80;;;;;;5092900;28;20581;-42
2021/05/23 09:42:55;;;;;;;2.58;2.20;;;22.20;58.80;;;;;;5082565;28;20047;-39
2021/05/23 09:45:22;;;;;;;2.30;2.10;;;22.10;58.80;;;;;;5083055;28;20028;-40
2021/05/23 09:47:55;;;;;;;2.88;2.55;;;22.20;58.90;;;;;;5083217;28;20150;-40
2021/05/23 09:50:38;;;;;;;2.40;2.20;;;22.10;58.90;;;;;;5084404;28;20052;-39
2021/05/23 09:53:28;;;;;;;2.80;2.17;;;22.10;58.90;;;;;;5099184;28;20032;-39
2021/05/23 09:56:07;;;;;;;2.78;2.30;;;22.10;58.90;;;;;;5083081;28;20101;-40
2021/05/23 09:58:36;;;;;;;2.42;2.15;;;22.10;58.90;;;;;;5082800;28;20060;-42
2021/05/23 10:01:04;;;;;;;3.15;2.22;;;22.00;58.90;;;;;;5082593;28;20036;-40
2021/05/23 10:03:30;;;;;;;;;;;22.00;58.90;;;;;;5085728;28;20362;-39
2021/05/23 10:05:57;;;;;;;2.60;2.40;;;22.00;58.90;;;;;;5082936;28;19904;-40
2021/05/23 10:08:23;;;;;;;2.60;2.40;;;22.00;59.00;;;;;;5082965;28;20051;-40
2021/05/23 10:10:49;;;;;;;2.47;2.28;;;22.00;59.00;;;;;;5096758;28;20036;-41
2021/05/23 10:13:16;;;;;;;3.40;2.37;;;22.00;59.10;;;;;;5102888;28;20028;-43
2021/05/23 10:15:43;;;;;;;2.30;2.10;;;22.00;59.10;;;;;;5103041;28;20024;-39
2021/05/23 10:18:09;;;;;;;3.05;2.28;;;21.90;59.10;;;;;;5103179;28;20127;-40
2021/05/23 10:20:35;;;;;;;2.40;2.20;;;21.90;59.10;;;;;;5099237;28;20032;-40
2021/05/23 10:23:17;;;;;;;2.40;2.20;;;21.90;59.10;;;;;;5088558;28;20038;-39
2021/05/23 10:25:51;;;;;;;2.20;2.00;;;21.90;59.20;;;;;;5099189;28;20024;-41
2021/05/23 10:28:17;;;;;;;2.33;2.13;;;21.90;59.20;;;;;;5101417;28;20040;-40
2021/05/23 10:30:55;;;;;;;2.70;2.20;;;21.90;59.50;;;;;;5101587;28;20043;-42
2021/05/23 10:33:22;;;;;;;2.65;2.13;;;21.80;59.20;;;;;;5086127;28;20036;-40
2021/05/23 10:35:50;;;;;;;2.38;2.00;;;21.90;59.30;;;;;;5082762;28;20039;-43
2021/05/23 10:38:19;;;;;;;2.95;2.22;;;21.80;59.20;;;;;;5082641;28;20036;-40
2021/05/23 10:40:59;;;;;;;2.53;2.33;;;21.80;59.20;;;;;;5096202;28;20028;-40
2021/05/23 10:43:27;;;;;;;2.20;2.00;;;21.80;59.30;;;;;;5102515;28;20522;-41
2021/05/23 10:46:13;;;;;;;2.72;2.45;;;21.80;59.30;;;;;;5102837;28;20055;-42
2021/05/23 10:48:51;;;;;;;2.58;2.38;;;21.80;59.30;;;;;;5102777;28;20062;-40
2021/05/23 10:51:17;;;;;;;2.33;2.13;;;21.80;59.40;;;;;;5102676;28;20044;-41
2021/05/23 10:53:44;;;;;;;2.25;2.05;;;21.70;59.30;;;;;;5102485;28;20060;-39
2021/05/23 10:56:24;;;;;;;3.03;2.30;;;21.80;59.30;;;;;;5102877;28;20028;-42
2021/05/23 10:58:58;;;;;;;2.42;2.22;;;21.70;59.40;;;;;;5102582;28;20276;-42
2021/05/23 11:01:47;;;;;;;2.80;2.20;;;21.70;59.30;;;;;;5083469;28;20036;-41
2021/05/23 11:04:17;;;;;;;3.92;2.20;;;21.70;59.40;;;;;;5106505;28;20663;-41
2021/05/23 11:06:44;;;;;;;2.30;2.10;;;21.70;59.40;;;;;;5106522;28;20024;-43
2021/05/23 11:09:34;;;;;;;2.40;2.20;;;21.60;59.40;;;;;;5106657;28;20034;-41
2021/05/23 11:12:09;;;;;;;2.38;2.17;;;21.60;59.50;;;;;;5106258;28;20031;-45
2021/05/23 11:14:37;;;;;;;2.33;2.13;;;21.60;59.50;;;;;;5106160;28;20618;-42
2021/05/23 11:17:07;;;;;;;2.40;2.20;;;21.60;59.40;;;;;;5106261;28;20032;-41
2021/05/23 11:19:33;;;;;;;3.50;2.03;;;21.60;59.50;;;;;;5105014;28;20024;-41
2021/05/23 11:21:59;;;;;;;2.60;2.40;;;21.60;59.50;;;;;;5106167;28;20036;-41
2021/05/23 11:24:35;;;;;;;2.35;1.85;;;21.60;59.50;;;;;;5106221;28;20024;-40
2021/05/23 11:27:16;;;;;;;2.63;2.10;;;21.60;59.60;;;;;;5106261;28;20083;-44
2021/05/23 11:29:49;;;;;;;2.20;2.00;;;21.60;59.60;;;;;;5104812;28;20016;-42
2021/05/23 11:32:16;;;;;;;2.30;2.10;;;21.50;59.60;;;;;;5099659;28;20064;-43
2021/05/23 11:34:43;;;;;;;2.25;2.05;;;21.50;59.70;;;;;;5103690;28;20039;-41
2021/05/23 11:37:09;;;;;;;3.78;2.50;;;21.50;59.60;;;;;;5105998;28;20032;-42
2021/05/23 11:39:36;;;;;;;2.60;2.40;;;21.50;59.60;;;;;;5102574;28;20464;-42
2021/05/23 11:42:03;;;;;;;2.42;2.22;;;21.50;59.60;;;;;;5085641;28;20051;-43
2021/05/23 11:44:36;;;;;;;2.40;2.05;;;21.50;59.70;;;;;;5085292;28;20063;-43
2021/05/23 11:47:03;;;;;;;3.83;2.45;;;21.50;59.70;;;;;;5085548;28;20024;-43
2021/05/23 11:49:30;;;;;;;2.40;2.20;;;21.40;59.70;;;;;;5085529;28;20062;-42
2021/05/23 11:52:00;;;;;;;3.25;2.40;;;21.40;59.60;;;;;;5085540;28;20115;-41
2021/05/23 11:54:26;;;;;;;2.72;2.53;;;21.40;59.70;;;;;;5103666;28;20056;-42
2021/05/23 11:56:52;;;;;;;2.17;1.98;;;21.40;59.70;;;;;;5101025;28;20028;-42
2021/05/23 11:59:19;;;;;;;2.30;2.10;;;21.40;59.70;;;;;;5105565;28;20477;-41
2021/05/23 12:01:54;;;;;;;2.60;2.40;;;21.40;59.70;;;;;;5102354;28;20041;-44
2021/05/23 12:04:21;;;;;;;2.83;2.40;;;21.30;59.80;;;;;;5085067;28;20097;-41
2021/05/23 12:06:49;;;;;;;2.20;1.98;;;21.30;59.70;;;;;;5085096;28;20032;-46
2021/05/23 12:09:18;;;;;;;2.55;2.10;;;21.40;59.80;;;;;;5085861;28;20029;-40
2021/05/23 12:11:52;;;;;;;2.38;2.17;;;21.40;59.80;;;;;;5103606;28;20028;-41
2021/05/23 12:14:21;;;;;;;2.05;1.90;;;21.30;59.70;;;;;;5104135;28;20024;-40
2021/05/23 12:16:50;;;;;;;2.17;1.95;;;21.30;59.80;;;;;;5105207;28;20036;-41
2021/05/23 12:19:17;;;;;;;2.50;2.30;;;21.30;60.40;;;;;;5103855;28;20024;-40
2021/05/23 12:21:43;;;;;;;2.30;2.10;;;21.30;59.70;;;;;;5105366;28;20024;-40
2021/05/23 12:24:09;;;;;;;2.53;2.30;;;21.30;59.80;;;;;;5104513;28;20092;-40
2021/05/23 12:26:36;;;;;;;1.70;1.60;;;21.30;59.80;;;;;;5103810;28;20080;-41
2021/05/23 12:29:03;;;;;;;2.22;2.03;;;21.30;59.80;;;;;;5104923;28;20024;-41
2021/05/23 12:31:29;;;;;;;2.95;2.08;;;21.30;59.80;;;;;;5104315;28;20036;-41
2021/05/23 12:33:56;;;;;;;2.50;2.30;;;21.30;59.80;;;;;;5084869;28;20085;-42
2021/05/23 12:36:23;;;;;;;;;;;21.30;59.80;;;;;;5084798;28;20052;-41
2021/05/23 12:39:08;;;;;;;2.38;2.05;;;21.30;59.80;;;;;;5084575;28;19984;-41
2021/05/23 12:41:39;;;;;;;3.05;2.20;;;21.30;59.70;;;;;;5104683;28;20785;-41
2021/05/23 12:44:24;;;;;;;2.35;2.15;;;21.30;59.80;;;;;;5104537;28;20054;-41
2021/05/23 12:46:51;;;;;;;2.35;2.15;;;21.30;59.80;;;;;;5103127;28;20020;-41
2021/05/23 12:49:24;;;;;;;2.30;2.10;;;21.30;59.80;;;;;;5104730;28;20501;-40
2021/05/23 12:51:52;;;;;;;3.97;2.13;;;21.30;59.80;;;;;;5104427;28;20051;-45